LFKF/FSC METAR and TAF weather

Enter ICAO airport designator
Station Type Date Time Source
LFKF METAR 2020/04/09 11:00 UTC NOAA

LFKF 091100Z AUTO 20007KT 160V230 CAVOK 20/11 Q1022 TEMPO SHRA SCT060TCU


Station Type Date Time Source
LFKF Decoded METAR 2020/04/09 11:00 UTC NOAA

Figari, France (LFKF) 41-30N 009-06E 23M
Apr 09, 2020 - 07:00 AM EDT / 2020.04.09 1100 UTC
Wind: from the SSW (200 degrees) at 8 MPH (7 KT) (direction variable):0
Visibility: greater than 7 mile(s):0
Weather: Towering cumulus clouds observed
Temperature: 68 F (20 C)
Dew Point: 51 F (11 C)
Relative Humidity: 56%
Pressure (altimeter): 30.18 in. Hg (1022 hPa)
ob: LFKF 091100Z AUTO 20007KT 160V230 CAVOK 20/11 Q1022 TEMPO SHRA SCT060TCU
cycle: 11

Station Type Date Time Source
LFKF TAF 2020/04/09 09:42 UTC NOAA

TAF TAF LFKF 090800Z 0909/1009 VRB02KT CAVOK PROB30
TEMPO 0910/0915 VRB12KT SHRA SCT060TCU

Example: see airport list